Time;durP1;ratioP1;P1;durP2;ratioP2;P2;SDS_P1;SDS_P2;PMS_P1;PMS_P2;Temp;Humidity;BMP_temperature;BMP_pressure;BME280_temperature;BME280_humidity;BME280_pressure;Samples;Min_cycle;Max_cycle;Signal;HPM_P1;HPM_P2
2022/07/22 00:01:54;;;;;;;20.20;4.97;;;;;;;23.39;59.99;100638.50;5067883;28;20024;-81
2022/07/22 00:04:20;;;;;;;9.05;4.10;;;;;;;23.31;59.60;100636.78;5071740;28;20024;-81
2022/07/22 00:06:45;;;;;;;10.95;4.50;;;;;;;23.33;58.61;100634.69;5071936;28;20023;-79
2022/07/22 00:09:11;;;;;;;9.65;4.18;;;;;;;23.26;58.07;100651.16;5064292;28;20035;-81
2022/07/22 00:11:36;;;;;;;8.65;4.53;;;;;;;23.16;58.76;100649.81;5052455;28;20479;-81
2022/07/22 00:14:02;;;;;;;12.07;4.88;;;;;;;23.12;60.81;100654.03;5047974;28;20103;-79
2022/07/22 00:16:27;;;;;;;16.20;5.30;;;;;;;23.09;61.38;100648.94;5052779;28;20420;-79
2022/07/22 00:18:53;;;;;;;14.82;7.13;;;;;;;23.15;63.85;100642.63;5067516;28;20107;-79
2022/07/22 00:21:18;;;;;;;20.92;6.72;;;;;;;23.16;65.27;100645.19;5063141;28;20495;-80
2022/07/22 00:23:44;;;;;;;17.20;6.25;;;;;;;23.12;66.01;100649.38;5051635;28;20052;-80
2022/07/22 00:26:10;;;;;;;20.67;6.95;;;;;;;23.13;66.30;100658.47;5056170;28;20027;-81
2022/07/22 00:28:36;;;;;;;18.00;6.93;;;;;;;23.01;67.33;100658.22;5051289;28;20060;-79
2022/07/22 00:31:01;;;;;;;14.63;7.22;;;;;;;23.06;67.99;100649.38;5051409;28;20505;-78
2022/07/22 00:33:27;;;;;;;21.00;7.65;;;;;;;22.92;67.89;100647.63;5054280;28;20032;-77
2022/07/22 00:35:52;;;;;;;52.10;7.85;;;;;;;22.98;67.81;100657.78;5055971;28;20021;-78
2022/07/22 00:38:18;;;;;;;18.88;6.47;;;;;;;22.98;67.57;100657.78;5055797;28;20025;-78
2022/07/22 00:40:43;;;;;;;19.17;6.63;;;;;;;22.95;67.45;100655.44;5056018;28;20028;-77
2022/07/22 00:43:09;;;;;;;22.02;5.53;;;;;;;22.93;67.21;100654.81;5055513;28;20021;-78
2022/07/22 00:45:34;;;;;;;13.80;5.95;;;;;;;22.87;66.45;100652.88;5055835;28;20021;-78
2022/07/22 00:47:59;;;;;;;14.45;5.88;;;;;;;22.66;66.70;100649.19;5055538;28;20021;-78
2022/07/22 00:50:25;;;;;;;10.98;5.65;;;;;;;22.65;66.38;100646.66;5054856;28;20017;-78
2022/07/22 00:52:50;;;;;;;9.80;5.40;;;;;;;22.73;65.70;100654.72;5054631;28;20036;-77
2022/07/22 00:55:16;;;;;;;16.38;6.38;;;;;;;22.73;65.59;100661.03;5054865;28;20110;-79
2022/07/22 00:57:43;;;;;;;21.75;5.57;;;;;;;22.63;65.30;100643.22;5055253;28;20407;-78
2022/07/22 01:00:13;;;;;;;15.57;5.30;;;;;;;22.73;65.07;100646.47;5054754;28;20021;-79
2022/07/22 01:02:38;;;;;;;15.50;5.13;;;;;;;22.83;65.01;100651.59;5055010;28;20028;-78
2022/07/22 01:05:05;;;;;;;13.48;5.97;;;;;;;22.81;64.74;100635.34;5054702;28;20021;-78
2022/07/22 01:07:30;;;;;;;10.35;4.75;;;;;;;22.80;65.15;100635.53;5054451;28;20032;-78
2022/07/22 01:09:56;;;;;;;14.30;5.25;;;;;;;22.87;64.99;100644.66;5054484;28;20032;-78
2022/07/22 01:12:21;;;;;;;14.00;4.70;;;;;;;22.88;65.12;100638.09;5054712;28;20025;-78
2022/07/22 01:14:47;;;;;;;13.88;5.07;;;;;;;22.97;64.91;100647.84;5054782;28;20031;-78
2022/07/22 01:17:12;;;;;;;13.50;4.38;;;;;;;23.02;64.90;100643.47;5054858;28;20021;-78
2022/07/22 01:19:38;;;;;;;7.78;4.35;;;;;;;23.04;64.84;100640.50;5054954;28;20553;-78
2022/07/22 01:22:06;;;;;;;15.20;4.50;;;;;;;23.02;65.09;100631.66;5054356;28;20024;-78
2022/07/22 01:24:32;;;;;;;10.65;4.90;;;;;;;23.12;65.13;100637.56;5054582;28;20108;-78
2022/07/22 01:26:58;;;;;;;12.00;5.75;;;;;;;23.13;64.92;100634.63;5054388;28;20112;-77
2022/07/22 01:29:23;;;;;;;8.60;5.00;;;;;;;23.17;64.37;100624.09;5046490;28;20091;-77
2022/07/22 01:31:49;;;;;;;10.85;4.60;;;;;;;23.18;64.11;100625.75;5045707;28;20127;-78
2022/07/22 01:34:14;;;;;;;13.93;5.95;;;;;;;23.27;63.41;100621.81;5043802;28;20033;-77
2022/07/22 01:36:40;;;;;;;12.13;4.97;;;;;;;23.33;63.51;100620.13;5054704;28;20032;-78
2022/07/22 01:39:05;;;;;;;12.85;4.80;;;;;;;23.36;63.06;100626.06;5054697;28;20064;-79
2022/07/22 01:41:31;;;;;;;8.38;4.93;;;;;;;23.39;63.23;100627.53;5054479;28;20442;-79
2022/07/22 01:43:57;;;;;;;8.40;4.82;;;;;;;23.44;62.54;100630.53;5053388;28;20110;-77
2022/07/22 01:46:23;;;;;;;12.85;5.07;;;;;;;23.43;62.66;100618.69;5054598;28;20074;-78
2022/07/22 01:48:50;;;;;;;12.38;4.90;;;;;;;23.46;62.02;100623.75;5053702;28;20128;-78
2022/07/22 01:51:16;;;;;;;26.98;6.03;;;;;;;23.47;62.16;100633.69;5053608;28;20023;-79
2022/07/22 01:53:41;;;;;;;12.10;5.40;;;;;;;23.39;62.42;100627.53;5054032;28;20560;-79
2022/07/22 01:56:07;;;;;;;30.20;6.25;;;;;;;23.41;63.06;100626.28;5053634;28;20080;-79
2022/07/22 01:58:33;;;;;;;8.95;5.63;;;;;;;23.31;63.41;100626.66;5053611;28;20053;-79
2022/07/22 02:00:59;;;;;;;12.80;5.72;;;;;;;23.40;63.18;100635.56;5053732;28;20032;-78
2022/07/22 02:03:24;;;;;;;28.33;6.05;;;;;;;23.35;62.99;100626.25;5053838;28;20029;-77
2022/07/22 02:05:49;;;;;;;12.70;6.25;;;;;;;23.43;62.63;100632.41;5053542;28;20028;-78
2022/07/22 02:08:15;;;;;;;11.32;5.57;;;;;;;23.37;63.10;100635.97;5054146;28;20017;-78
2022/07/22 02:10:40;;;;;;;16.30;6.10;;;;;;;23.31;62.85;100625.81;5054150;28;20071;-77
2022/07/22 02:13:06;;;;;;;10.35;5.32;;;;;;;23.39;62.55;100628.41;5054360;28;20029;-78
2022/07/22 02:15:31;;;;;;;13.15;5.97;;;;;;;23.31;62.23;100620.31;5054478;28;20032;-78
2022/07/22 02:17:57;;;;;;;15.13;5.55;;;;;;;23.27;62.44;100627.28;5053782;28;20021;-79
2022/07/22 02:20:23;;;;;;;10.07;5.65;;;;;;;23.25;62.89;100630.22;5054613;28;20024;-81
2022/07/22 02:22:48;;;;;;;12.02;5.53;;;;;;;23.18;62.77;100617.53;5055268;28;20052;-80
2022/07/22 02:25:14;;;;;;;17.48;5.95;;;;;;;23.25;62.82;100632.97;5054578;28;20439;-79
2022/07/22 02:27:41;;;;;;;13.35;5.18;;;;;;;23.31;62.67;100636.78;5054374;28;20025;-79
2022/07/22 02:30:08;;;;;;;13.20;5.97;;;;;;;23.28;62.79;100635.31;5054615;28;20166;-80
2022/07/22 02:32:34;;;;;;;14.13;6.30;;;;;;;23.08;63.11;100630.81;5054720;28;20036;-78
2022/07/22 02:34:59;;;;;;;15.15;6.07;;;;;;;23.06;63.42;100632.91;5056662;28;20474;-80
2022/07/22 02:37:25;;;;;;;14.63;5.65;;;;;;;23.10;63.85;100639.69;5069092;28;20024;-79
2022/07/22 02:39:50;;;;;;;20.48;6.65;;;;;;;22.98;64.18;100628.47;5065726;28;20017;-79
2022/07/22 02:42:16;;;;;;;16.58;6.57;;;;;;;22.89;64.33;100620.59;5050589;28;20403;-79
2022/07/22 02:44:41;;;;;;;11.93;5.65;;;;;;;23.04;64.39;100635.00;5054413;28;20032;-81
2022/07/22 02:47:07;;;;;;;11.23;5.57;;;;;;;22.97;64.18;100623.16;5054235;28;20088;-81
2022/07/22 02:49:32;;;;;;;18.42;6.57;;;;;;;23.05;63.91;100625.75;5053688;28;20032;-81
2022/07/22 02:51:58;;;;;;;19.02;6.10;;;;;;;23.11;63.55;100630.41;5053948;28;20051;-80
2022/07/22 02:54:24;;;;;;;7.05;5.15;;;;;;;23.17;63.21;100629.56;5054545;28;20419;-79
2022/07/22 02:56:49;;;;;;;12.27;6.20;;;;;;;23.15;63.18;100626.19;5054263;28;20499;-80
2022/07/22 02:59:15;;;;;;;16.45;5.90;;;;;;;23.16;62.99;100622.38;5055320;28;20032;-80
2022/07/22 03:01:41;;;;;;;23.30;6.53;;;;;;;23.18;62.68;100626.63;5036483;28;20032;-80
2022/07/22 03:04:06;;;;;;;9.07;4.95;;;;;;;23.18;62.45;100631.25;5051339;28;20445;-79
2022/07/22 03:06:32;;;;;;;18.38;6.35;;;;;;;23.22;62.61;100632.53;5054014;28;20122;-80
2022/07/22 03:08:57;;;;;;;12.27;5.68;;;;;;;23.19;62.33;100627.47;5054150;28;20032;-80
2022/07/22 03:11:22;;;;;;;11.45;6.10;;;;;;;23.21;62.40;100636.31;5054337;28;20496;-80
2022/07/22 03:13:48;;;;;;;18.23;6.57;;;;;;;23.21;61.91;100626.19;5054367;28;20086;-80
2022/07/22 03:16:19;;;;;;;14.80;6.22;;;;;;;23.24;61.94;100631.28;5054649;28;20024;-80
2022/07/22 03:18:45;;;;;;;15.65;5.97;;;;;;;23.20;61.86;100624.53;5052744;28;20036;-80
2022/07/22 03:21:10;;;;;;;18.30;7.40;;;;;;;23.30;61.65;100630.44;5054379;28;20021;-80
2022/07/22 03:23:36;;;;;;;11.35;6.10;;;;;;;23.27;61.87;100630.03;5053929;28;20051;-80
2022/07/22 03:26:02;;;;;;;20.52;6.90;;;;;;;23.24;61.79;100624.94;5053806;28;20437;-79
2022/07/22 03:28:27;;;;;;;14.82;6.65;;;;;;;23.23;61.68;100634.25;5052505;28;20029;-77
2022/07/22 03:30:53;;;;;;;14.70;7.07;;;;;;;23.23;62.00;100631.50;5052169;28;20083;-77
2022/07/22 03:33:18;;;;;;;15.02;5.75;;;;;;;23.25;61.89;100626.63;5051834;28;20021;-77
2022/07/22 03:35:44;;;;;;;27.65;7.18;;;;;;;23.22;62.18;100632.53;5052605;28;20052;-85
2022/07/22 03:38:09;;;;;;;17.40;7.15;;;;;;;23.27;62.00;100635.53;5036192;28;20025;-85
2022/07/22 03:40:35;;;;;;;24.23;8.50;;;;;;;23.17;61.91;100619.47;5036085;28;20071;-83
2022/07/22 03:43:00;;;;;;;15.95;5.90;;;;;;;23.11;62.19;100624.91;5053978;28;20052;-82
2022/07/22 03:45:26;;;;;;;17.83;7.63;;;;;;;23.15;62.32;100637.16;5058852;28;20024;-79
2022/07/22 03:47:54;;;;;;;16.10;6.95;;;;;;;23.14;62.67;100640.97;5067691;28;20598;-79
2022/07/22 03:50:19;;;;;;;21.10;6.97;;;;;;;23.11;62.68;100630.41;5062199;28;20179;-78
2022/07/22 03:52:45;;;;;;;23.52;8.10;;;;;;;23.14;63.27;100630.00;5068109;28;20118;-78
2022/07/22 03:55:10;;;;;;;24.52;7.93;;;;;;;23.16;63.37;100641.59;5071165;28;20020;-79
2022/07/22 03:57:36;;;;;;;23.52;8.02;;;;;;;23.14;63.44;100632.75;5070009;28;20029;-80
2022/07/22 04:00:02;;;;;;;23.05;8.45;;;;;;;23.13;63.57;100640.13;5057128;28;20634;-81
2022/07/22 04:02:28;;;;;;;20.77;8.48;;;;;;;23.06;63.52;100627.41;5037086;28;20122;-83
2022/07/22 04:04:53;;;;;;;26.52;9.35;;;;;;;23.07;63.71;100640.09;5056184;28;20104;-83
2022/07/22 04:07:19;;;;;;;23.73;9.13;;;;;;;23.03;64.42;100639.66;5054093;28;20020;-80
2022/07/22 04:09:44;;;;;;;30.13;10.80;;;;;;;23.00;65.13;100630.97;5058813;28;20509;-85
2022/07/22 04:12:10;;;;;;;34.92;11.00;;;;;;;23.08;65.12;100636.31;5039320;28;20025;-80
2022/07/22 04:14:35;;;;;;;21.15;10.15;;;;;;;23.11;65.10;100635.91;5057357;28;20021;-81
2022/07/22 04:17:00;;;;;;;35.10;10.32;;;;;;;23.16;65.21;100634.22;5057933;28;20021;-83
2022/07/22 04:19:26;;;;;;;28.60;9.98;;;;;;;23.22;64.95;100632.53;5057488;28;20029;-83
2022/07/22 04:21:51;;;;;;;30.88;11.05;;;;;;;23.30;64.53;100630.44;5062041;28;20035;-75
2022/07/22 04:24:17;;;;;;;28.90;10.80;;;;;;;23.38;64.60;100631.31;5074671;28;20031;-77
2022/07/22 04:26:42;;;;;;;58.38;12.63;;;;;;;23.24;64.91;100635.91;5070598;28;20063;-77
2022/07/22 04:29:08;;;;;;;33.45;12.07;;;;;;;23.17;65.40;100621.34;5063177;28;20029;-80
2022/07/22 04:31:33;;;;;;;51.78;15.43;;;;;;;23.23;65.04;100624.13;5069555;28;20031;-78
2022/07/22 04:33:59;;;;;;;32.33;13.60;;;;;;;23.36;64.76;100634.28;5064519;28;20024;-80
2022/07/22 04:36:24;;;;;;;42.20;12.70;;;;;;;23.29;64.73;100634.25;5055203;28;20028;-76
2022/07/22 04:38:50;;;;;;;45.95;14.23;;;;;;;23.28;64.74;100637.19;5055082;28;20090;-78
2022/07/22 04:41:16;;;;;;;31.15;13.48;;;;;;;23.28;64.84;100631.72;5055529;28;20025;-79
2022/07/22 04:43:41;;;;;;;37.40;11.95;;;;;;;23.32;64.87;100638.50;5045532;28;20028;-82
2022/07/22 04:46:07;;;;;;;37.88;12.90;;;;;;;23.38;64.11;100632.16;5055091;28;20024;-78
2022/07/22 04:48:32;;;;;;;28.60;11.65;;;;;;;23.44;64.34;100642.34;5063273;28;20024;-79
2022/07/22 04:51:02;;;;;;;38.22;11.82;;;;;;;23.48;63.94;100646.38;5065460;28;20438;-77
2022/07/22 04:53:27;;;;;;;28.45;13.02;;;;;;;23.55;63.81;100649.97;5065304;28;20104;-82
2022/07/22 04:55:53;;;;;;;35.10;12.25;;;;;;;23.61;63.48;100642.78;5075518;28;20076;-80
2022/07/22 04:58:19;;;;;;;36.63;11.60;;;;;;;23.64;63.74;100637.72;5076898;28;20020;-83
2022/07/22 05:00:45;;;;;;;37.47;12.35;;;;;;;23.68;63.06;100636.25;5072136;28;20024;-81
2022/07/22 05:03:10;;;;;;;35.25;11.50;;;;;;;23.77;63.07;100637.75;5056131;28;20025;-80
2022/07/22 05:05:36;;;;;;;40.60;10.60;;;;;;;23.92;62.87;100647.66;5037246;28;20557;-83
2022/07/22 05:08:01;;;;;;;25.88;10.95;;;;;;;23.90;62.64;100636.06;5055149;28;20172;-81
2022/07/22 05:10:27;;;;;;;26.92;11.68;;;;;;;24.05;62.41;100651.28;5055436;28;20029;-81
2022/07/22 05:12:53;;;;;;;23.67;10.18;;;;;;;24.13;62.52;100645.59;5055740;28;20036;-81
2022/07/22 05:15:18;;;;;;;42.55;10.88;;;;;;;24.18;62.04;100655.97;5054614;28;20437;-79
2022/07/22 05:17:44;;;;;;;40.13;12.65;;;;;;;24.16;62.38;100653.41;5054894;28;20017;-81
2022/07/22 05:20:10;;;;;;;45.25;11.73;;;;;;;24.24;62.24;100652.38;5053370;28;20061;-82
2022/07/22 05:22:35;;;;;;;21.63;7.47;;;;;;;24.33;56.65;100648.34;5054296;28;20016;-80
2022/07/22 05:25:01;;;;;;;13.55;4.18;;;;;;;24.53;51.77;100637.28;5037180;28;20798;-80
2022/07/22 05:27:26;;;;;;;10.88;4.13;;;;;;;24.77;51.26;100639.31;5054155;28;20490;-80
2022/07/22 05:29:52;;;;;;;18.70;4.43;;;;;;;24.86;50.86;100638.91;5035519;28;20044;-78
2022/07/22 05:32:18;;;;;;;15.00;5.07;;;;;;;25.04;49.99;100648.38;5053812;28;20522;-84
2022/07/22 05:34:43;;;;;;;23.50;4.65;;;;;;;25.09;48.04;100619.13;5056291;28;20079;-84
2022/07/22 05:37:09;;;;;;;8.75;4.13;;;;;;;25.33;47.85;100634.88;5037596;28;20063;-78
2022/07/22 05:39:34;;;;;;;12.10;3.63;;;;;;;25.44;46.17;100625.91;5056902;28;20029;-83
2022/07/22 05:41:59;;;;;;;11.57;3.42;;;;;;;25.62;44.90;100633.47;5056491;28;20033;-83
2022/07/22 05:44:25;;;;;;;6.28;3.25;;;;;;;25.73;43.89;100624.47;5056883;28;20029;-82
2022/07/22 05:46:50;;;;;;;11.60;4.35;;;;;;;25.84;43.92;100626.50;5056913;28;20036;-86
2022/07/22 05:49:16;;;;;;;11.90;3.67;;;;;;;25.97;42.39;100636.56;5055718;28;20108;-85
2022/07/22 05:51:41;;;;;;;16.45;3.67;;;;;;;26.02;42.27;100625.72;5056022;28;20469;-88
2022/07/22 05:54:07;;;;;;;10.27;3.85;;;;;;;26.13;41.40;100626.88;5055546;28;20035;-86
2022/07/22 05:56:32;;;;;;;17.98;3.50;;;;;;;26.18;41.29;100621.56;5037427;28;20403;-86
2022/07/22 05:58:58;;;;;;;6.38;3.63;;;;;;;26.32;40.97;100635.03;5055482;28;20029;-82
2022/07/22 06:01:24;;;;;;;16.85;5.20;;;;;;;26.40;41.32;100634.72;5055540;28;20094;-81
2022/07/22 06:03:50;;;;;;;15.07;3.83;;;;;;;26.41;40.32;100617.09;5055358;28;20029;-83
2022/07/22 06:06:16;;;;;;;17.75;3.75;;;;;;;26.54;39.28;100627.16;5055267;28;20035;-84
2022/07/22 06:08:41;;;;;;;11.25;3.28;;;;;;;26.73;38.99;100636.25;5055329;28;20029;-83
2022/07/22 06:11:06;;;;;;;10.82;3.08;;;;;;;26.69;37.75;100613.81;5055053;28;20048;-84
2022/07/22 06:13:33;;;;;;;8.35;3.22;;;;;;;26.90;36.89;100631.84;5037899;28;20064;-82
2022/07/22 06:15:59;;;;;;;10.95;3.15;;;;;;;26.96;37.97;100642.81;5055065;28;20029;-84
2022/07/22 06:18:25;;;;;;;13.30;3.30;;;;;;;27.03;37.76;100643.56;5054637;28;20020;-84
2022/07/22 06:20:50;;;;;;;15.52;4.18;;;;;;;26.98;37.52;100624.09;5055616;28;20035;-83
2022/07/22 06:23:15;;;;;;;15.02;3.38;;;;;;;27.15;37.60;100645.56;5055599;28;20108;-84
2022/07/22 06:25:42;;;;;;;12.52;3.33;;;;;;;27.25;37.31;100637.53;5055256;28;20024;-85
2022/07/22 06:28:08;;;;;;;14.60;4.00;;;;;;;27.24;37.49;100628.44;5037025;28;20033;-84
2022/07/22 06:30:33;;;;;;;20.48;3.83;;;;;;;27.27;37.88;100627.13;5054333;28;20051;-85
2022/07/22 06:32:59;;;;;;;14.43;3.35;;;;;;;27.39;37.61;100637.16;5036582;28;20024;-80
2022/07/22 06:35:27;;;;;;;13.63;3.33;;;;;;;27.41;35.74;100614.78;5054879;28;20020;-84
2022/07/22 06:37:53;;;;;;;12.43;4.07;;;;;;;27.55;36.97;100625.44;5054955;28;20033;-81
2022/07/22 06:40:18;;;;;;;11.95;3.58;;;;;;;27.52;36.18;100603.81;5055525;28;20079;-90
2022/07/22 06:42:44;;;;;;;10.10;3.33;;;;;;;27.67;35.82;100608.91;5037803;28;20435;-89
2022/07/22 06:45:10;;;;;;;15.98;2.55;;;;;;;27.76;36.00;100615.78;5038292;28;20032;-88
2022/07/22 06:47:36;;;;;;;7.65;3.88;;;;;;;27.84;35.49;100612.66;5038071;28;20116;-89
2022/07/22 06:50:03;;;;;;;10.35;3.80;;;;;;;27.92;34.80;100620.59;5037712;28;20048;-88
2022/07/22 06:52:29;;;;;;;12.52;3.45;;;;;;;27.94;33.95;100614.84;5056210;28;20051;-89
2022/07/22 06:54:54;;;;;;;5.55;3.25;;;;;;;27.92;33.01;100608.72;5055367;28;20035;-89
2022/07/22 06:57:20;;;;;;;13.57;3.10;;;;;;;28.10;32.59;100623.28;5055898;28;20044;-91
2022/07/22 06:59:45;;;;;;;17.50;3.30;;;;;;;28.09;33.11;100616.09;5037958;28;20079;-89
2022/07/22 07:02:11;;;;;;;8.45;2.38;;;;;;;28.13;33.34;100619.22;5055181;28;20040;-89
2022/07/22 07:04:36;;;;;;;16.40;3.25;;;;;;;28.16;33.32;100615.97;5036644;28;20036;-89
2022/07/22 07:07:02;;;;;;;9.23;2.60;;;;;;;28.25;32.75;100624.75;5036341;28;20112;-89
2022/07/22 07:09:27;;;;;;;6.65;2.95;;;;;;;28.23;32.53;100602.84;5036691;28;20025;-89
2022/07/22 07:11:53;;;;;;;9.20;2.92;;;;;;;28.45;33.17;100628.81;5036463;28;20040;-88
2022/07/22 07:14:18;;;;;;;8.45;2.42;;;;;;;28.39;31.81;100592.97;5054655;28;20040;-88
2022/07/22 07:16:43;;;;;;;5.50;2.72;;;;;;;28.46;32.16;100610.31;5055031;28;20411;-88
2022/07/22 07:19:09;;;;;;;14.45;2.53;;;;;;;28.49;31.72;100602.38;5036243;28;20024;-88
2022/07/22 07:21:35;;;;;;;7.90;2.47;;;;;;;28.57;32.02;100609.44;5036294;28;20045;-89
2022/07/22 07:24:01;;;;;;;5.03;3.00;;;;;;;28.63;31.67;100600.16;5037188;28;20035;-88
2022/07/22 07:26:27;;;;;;;16.55;2.42;;;;;;;28.78;30.68;100608.81;5055789;28;20497;-87
2022/07/22 07:28:53;;;;;;;5.70;2.33;;;;;;;28.90;29.97;100612.41;5054985;28;20033;-88
2022/07/22 07:31:18;;;;;;;10.43;2.53;;;;;;;29.04;29.95;100629.59;5055050;28;20028;-87
2022/07/22 07:33:43;;;;;;;8.25;3.08;;;;;;;29.03;29.74;100619.59;5053619;28;20025;-87
2022/07/22 07:36:09;;;;;;;4.45;1.88;;;;;;;29.02;30.11;100610.44;5036550;28;20066;-87
2022/07/22 07:38:35;;;;;;;13.50;2.33;;;;;;;29.05;29.83;100596.09;5054147;28;20087;-87
2022/07/22 07:41:01;;;;;;;18.80;3.38;;;;;;;29.32;30.13;100626.03;5053746;28;20104;-87
2022/07/22 07:43:26;;;;;;;8.50;2.75;;;;;;;29.22;29.26;100598.09;5052801;28;20122;-86
2022/07/22 07:45:52;;;;;;;9.25;2.22;;;;;;;29.30;28.86;100600.47;5035854;28;20494;-86
2022/07/22 07:48:17;;;;;;;9.52;2.05;;;;;;;29.46;29.41;100605.22;5054486;28;20036;-89
2022/07/22 07:50:43;;;;;;;7.38;2.72;;;;;;;29.60;29.64;100634.34;5036900;28;20060;-88
2022/07/22 07:53:08;;;;;;;13.93;3.25;;;;;;;29.54;30.25;100613.97;5054367;28;20017;-88
2022/07/22 07:55:37;;;;;;;18.27;2.90;;;;;;;29.51;30.47;100588.72;5036828;28;20162;-88
2022/07/22 07:58:03;;;;;;;10.50;2.60;;;;;;;29.72;30.66;100604.63;5053634;28;20657;-89
2022/07/22 08:00:32;;;;;;;8.70;2.55;;;;;;;29.74;30.02;100602.44;5054136;28;20098;-89
2022/07/22 08:02:57;;;;;;;15.55;2.55;;;;;;;29.74;30.10;100574.69;5054174;28;20040;-89
2022/07/22 08:05:23;;;;;;;10.80;3.42;;;;;;;30.01;30.62;100617.34;5054208;28;20032;-89
2022/07/22 08:07:49;;;;;;;23.58;3.05;;;;;;;30.12;29.72;100621.13;5036196;28;20025;-88
2022/07/22 08:10:16;;;;;;;10.82;2.90;;;;;;;30.17;30.11;100637.84;5037102;28;20486;-89
2022/07/22 08:12:42;;;;;;;5.20;2.67;;;;;;;30.10;28.49;100610.28;5035650;28;20033;-91
2022/07/22 08:15:08;;;;;;;6.88;1.90;;;;;;;30.20;28.00;100618.75;5036783;28;20086;-90
2022/07/22 08:17:34;;;;;;;7.93;1.92;;;;;;;30.32;27.30;100626.13;5035415;28;20033;-89
2022/07/22 08:19:59;;;;;;;3.92;1.95;;;;;;;30.22;27.36;100602.69;5036711;28;20108;-89
2022/07/22 08:22:24;;;;;;;18.20;2.67;;;;;;;30.29;27.63;100610.84;5053648;28;20086;-89
2022/07/22 08:24:50;;;;;;;10.02;2.38;;;;;;;30.40;27.78;100620.19;5035813;28;20029;-88
2022/07/22 08:27:15;;;;;;;6.20;1.98;;;;;;;30.47;27.45;100613.34;5036386;28;20021;-89
2022/07/22 08:29:41;;;;;;;6.30;2.20;;;;;;;30.48;27.28;100611.44;5036433;28;20025;-88
2022/07/22 08:32:06;;;;;;;9.63;2.20;;;;;;;30.44;26.97;100601.94;5055006;28;20032;-88
2022/07/22 08:34:32;;;;;;;3.72;1.85;;;;;;;30.60;26.14;100606.59;5037007;28;20025;-88
2022/07/22 08:36:57;;;;;;;11.82;5.68;;;;;;;30.63;25.98;100618.03;5054367;28;20036;-88
2022/07/22 08:39:23;;;;;;;10.85;3.35;;;;;;;30.61;26.70;100619.41;5035894;28;20124;-88
2022/07/22 08:41:49;;;;;;;9.38;2.38;;;;;;;30.67;26.47;100621.16;5054485;28;20028;-89
2022/07/22 08:44:14;;;;;;;15.93;2.63;;;;;;;30.63;26.60;100606.09;5054095;28;20020;-86
2022/07/22 08:46:43;;;;;;;6.50;2.00;;;;;;;30.88;26.92;100634.22;5054694;28;20021;-88
2022/07/22 08:49:10;;;;;;;11.20;2.85;;;;;;;30.81;27.08;100616.88;5054690;28;20471;-89
2022/07/22 08:51:35;;;;;;;6.20;1.85;;;;;;;30.85;26.93;100597.78;5054108;28;20106;-89
2022/07/22 08:54:01;;;;;;;5.53;2.88;;;;;;;30.94;26.39;100602.66;5038726;28;20429;-89
2022/07/22 08:56:26;;;;;;;9.00;2.75;;;;;;;30.98;26.29;100612.13;5039150;28;20041;-88
2022/07/22 08:58:52;;;;;;;8.35;2.85;;;;;;;30.99;26.35;100599.94;5040506;28;20526;-88
2022/07/22 09:01:17;;;;;;;5.72;2.88;;;;;;;31.04;26.68;100607.50;5041226;28;20025;-88
2022/07/22 09:03:46;;;;;;;11.43;1.80;;;;;;;31.17;26.43;100601.50;5057831;28;20071;-87
2022/07/22 09:06:12;;;;;;;16.55;3.05;;;;;;;31.27;26.89;100624.72;5057636;28;20033;-88
2022/07/22 09:09:05;;;;;;;19.55;2.22;;;;;;;31.28;26.42;100614.44;5057398;28;20025;-88
2022/07/22 09:11:31;;;;;;;6.35;1.70;;;;;;;31.41;26.08;100635.41;5035276;28;20039;-88
2022/07/22 09:13:58;;;;;;;10.27;2.97;;;;;;;31.48;26.27;100620.22;5039441;28;20123;-89
2022/07/22 09:16:45;;;;;;;14.48;4.00;;;;;;;31.58;26.93;100628.69;5039791;28;20025;-86
2022/07/22 09:19:11;;;;;;;12.50;3.10;;;;;;;31.68;26.37;100625.19;5056500;28;20028;-84
2022/07/22 09:21:43;;;;;;;11.85;2.03;;;;;;;31.73;26.40;100633.56;5057937;28;20108;-84
2022/07/22 09:24:35;;;;;;;8.85;2.78;;;;;;;31.76;26.35;100627.47;5057003;28;20037;-86
2022/07/22 09:27:01;;;;;;;23.95;2.80;;;;;;;31.77;26.75;100607.72;5038924;28;20040;-89
2022/07/22 09:29:26;;;;;;;19.15;2.80;;;;;;;31.93;26.15;100622.59;5038743;28;20029;-84
2022/07/22 09:31:52;;;;;;;10.52;1.75;;;;;;;31.91;26.20;100605.34;5056532;28;20037;-88
2022/07/22 09:34:34;;;;;;;10.20;2.28;;;;;;;32.15;25.52;100631.72;5056535;28;20029;-84
2022/07/22 09:37:00;;;;;;;6.25;2.03;;;;;;;32.15;25.62;100628.94;5056539;28;20032;-82
2022/07/22 09:39:26;;;;;;;2.05;1.38;;;;;;;32.16;25.77;100625.06;5056168;28;20036;-80
2022/07/22 09:42:05;;;;;;;7.80;1.63;;;;;;;32.20;25.63;100617.84;5054855;28;20441;-80
2022/07/22 09:44:31;;;;;;;5.60;2.00;;;;;;;32.17;25.37;100612.81;5055328;28;20037;-83
2022/07/22 09:46:56;;;;;;;10.75;1.98;;;;;;;32.27;25.50;100624.03;5055183;28;20056;-80
2022/07/22 09:49:39;;;;;;;9.15;1.65;;;;;;;32.35;25.20;100631.06;5054648;28;20021;-81
2022/07/22 09:52:05;;;;;;;1.42;1.23;;;;;;;32.24;24.81;100602.28;5055790;28;20147;-81
2022/07/22 09:54:31;;;;;;;5.55;1.45;;;;;;;32.33;25.03;100617.38;5054828;28;20474;-82
2022/07/22 09:56:58;;;;;;;9.15;2.72;;;;;;;32.26;25.29;100611.19;5037984;28;20055;-82
2022/07/22 09:59:23;;;;;;;5.28;2.00;;;;;;;32.33;25.35;100622.94;5054660;28;20548;-80
2022/07/22 10:01:54;;;;;;;8.90;2.28;;;;;;;32.41;25.69;100615.22;5037241;28;20033;-82
2022/07/22 10:04:20;;;;;;;6.68;2.10;;;;;;;32.46;25.68;100613.28;5054256;28;20032;-81
2022/07/22 10:06:48;;;;;;;4.70;1.65;;;;;;;32.62;25.55;100614.25;5055041;28;20108;-86
2022/07/22 10:09:16;;;;;;;6.88;2.05;;;;;;;32.75;24.76;100613.78;5056474;28;20025;-86
2022/07/22 10:11:45;;;;;;;5.75;2.28;;;;;;;32.74;25.18;100612.94;5056181;28;20128;-86
2022/07/22 10:14:13;;;;;;;5.60;1.67;;;;;;;32.78;25.17;100596.53;5038453;28;20453;-86
2022/07/22 10:16:39;;;;;;;14.45;1.95;;;;;;;32.92;25.56;100603.25;5055640;28;20029;-86
2022/07/22 10:19:05;;;;;;;14.50;2.50;;;;;;;33.04;25.12;100605.81;5055110;28;20025;-86
2022/07/22 10:21:33;;;;;;;8.05;2.13;;;;;;;33.10;25.12;100594.44;5037679;28;20040;-85
2022/07/22 10:24:14;;;;;;;21.92;2.28;;;;;;;33.25;24.99;100602.00;5054890;28;20040;-86
2022/07/22 10:26:46;;;;;;;15.07;3.00;;;;;;;33.39;29.44;100608.75;5054780;28;20025;-85
2022/07/22 10:29:25;;;;;;;18.30;4.30;;;;;;;33.02;32.51;100602.47;5054788;28;20076;-85
2022/07/22 10:32:21;;;;;;;13.50;3.45;;;;;;;32.84;32.05;100604.59;5054918;28;20104;-86
2022/07/22 10:35:01;;;;;;;11.50;3.47;;;;;;;32.95;31.56;100604.66;5037051;28;20075;-86
2022/07/22 10:37:43;;;;;;;9.80;2.85;;;;;;;33.02;28.49;100594.09;5054994;28;20044;-86
2022/07/22 10:40:15;;;;;;;12.05;3.42;;;;;;;32.98;31.08;100591.00;5036829;28;20495;-87
2022/07/22 10:42:56;;;;;;;;;;;;;;;33.08;31.24;100596.66;5055181;28;20380;-86
2022/07/22 10:45:23;;;;;;;12.30;4.05;;;;;;;32.94;33.72;100595.44;5054482;28;19916;-84
2022/07/22 10:47:53;;;;;;;9.30;3.72;;;;;;;32.94;34.00;100589.88;5036602;28;20021;-86
2022/07/22 10:50:40;;;;;;;3.90;2.15;;;;;;;33.11;27.15;100587.75;5038104;28;20040;-86
2022/07/22 10:53:24;;;;;;;21.33;6.25;;;;;;;33.25;30.75;100586.09;5055754;28;20055;-85
2022/07/22 10:56:14;;;;;;;8.50;4.03;;;;;;;33.30;33.25;100576.94;5054633;28;20491;-86
2022/07/22 10:58:45;;;;;;;13.02;4.57;;;;;;;33.32;33.59;100586.69;5042804;28;20112;-86
2022/07/22 11:01:14;;;;;;;20.92;3.63;;;;;;;33.37;33.57;100592.28;5054795;28;20021;-86
2022/07/22 11:03:41;;;;;;;12.48;3.38;;;;;;;33.40;33.93;100604.81;5054461;28;20028;-85
2022/07/22 11:06:22;;;;;;;23.08;3.80;;;;;;;33.16;32.95;100592.50;5036824;28;20059;-84
2022/07/22 11:08:53;;;;;;;16.52;3.78;;;;;;;33.12;32.76;100586.63;5054254;28;20017;-84
2022/07/22 11:11:30;;;;;;;5.15;2.55;;;;;;;33.02;32.05;100603.31;5054296;28;20021;-83
2022/07/22 11:13:56;;;;;;;14.30;2.80;;;;;;;32.79;32.25;100592.59;5053781;28;20024;-83
2022/07/22 11:16:23;;;;;;;12.77;3.85;;;;;;;32.86;32.06;100599.63;5053655;28;20025;-84
2022/07/22 11:18:54;;;;;;;7.03;2.70;;;;;;;32.69;32.87;100592.56;5053962;28;20029;-84